createdAt,value
2023-03-04T00:00:12.627Z,23.33
2023-03-04T00:00:46.467Z,21.60
2023-03-04T00:01:18.073Z,20.67
2023-03-04T00:01:50.667Z,21.20
2023-03-04T00:02:22.455Z,21.92
2023-03-04T00:02:54.168Z,24.00
2023-03-04T00:03:25.847Z,21.85
2023-03-04T00:03:57.493Z,25.25
2023-03-04T00:04:29.070Z,25.42
2023-03-04T00:05:00.698Z,25.88
2023-03-04T00:05:32.792Z,23.90
2023-03-04T00:06:05.250Z,25.38
2023-03-04T00:06:36.810Z,23.30
2023-03-04T00:07:08.552Z,24.63
2023-03-04T00:07:40.184Z,24.60
2023-03-04T00:08:11.875Z,24.30
2023-03-04T00:08:43.528Z,26.77
2023-03-04T00:09:15.140Z,25.63
2023-03-04T00:09:47.247Z,25.27
2023-03-04T00:10:19.064Z,23.48
2023-03-04T00:10:50.705Z,23.85
2023-03-04T00:11:22.360Z,25.63
2023-03-04T00:11:54.073Z,24.73
2023-03-04T00:12:25.682Z,26.45
2023-03-04T00:12:57.301Z,24.38
2023-03-04T00:13:28.981Z,24.48
2023-03-04T00:14:00.904Z,25.23
2023-03-04T00:14:32.461Z,22.95
2023-03-04T00:15:04.308Z,23.80
2023-03-04T00:15:35.868Z,25.63
2023-03-04T00:16:07.983Z,25.13
2023-03-04T00:16:39.652Z,24.80
2023-03-04T00:17:11.377Z,25.98
2023-03-04T00:17:43.026Z,24.52
2023-03-04T00:18:14.623Z,24.40
2023-03-04T00:18:46.204Z,24.20
2023-03-04T00:19:17.826Z,23.77
2023-03-04T00:19:49.462Z,23.65
2023-03-04T00:20:21.134Z,23.92
2023-03-04T00:20:52.724Z,21.73
2023-03-04T00:21:24.900Z,21.27
2023-03-04T00:21:56.746Z,21.23
2023-03-04T00:22:28.334Z,20.00
2023-03-04T00:22:59.947Z,20.83
2023-03-04T00:23:31.647Z,20.48
2023-03-04T00:24:03.488Z,21.77
2023-03-04T00:24:35.331Z,21.52
2023-03-04T00:25:07.484Z,21.67
2023-03-04T00:25:39.126Z,22.17
2023-03-04T00:26:10.825Z,20.90
2023-03-04T00:26:42.518Z,21.23
2023-03-04T00:27:14.128Z,22.58
2023-03-04T00:27:45.791Z,21.40
2023-03-04T00:28:17.459Z,22.83
2023-03-04T00:28:49.059Z,22.83
2023-03-04T00:29:22.886Z,22.00
2023-03-04T00:29:54.498Z,21.65
2023-03-04T00:30:26.140Z,22.50
2023-03-04T00:30:58.015Z,19.95
2023-03-04T00:31:29.625Z,20.33
2023-03-04T00:32:01.342Z,22.10
2023-03-04T00:32:33.258Z,20.45
2023-03-04T00:33:04.879Z,21.75
2023-03-04T00:33:36.887Z,20.67
2023-03-04T00:34:08.552Z,22.65
2023-03-04T00:34:40.784Z,20.13
2023-03-04T00:35:12.476Z,20.65
2023-03-04T00:35:44.219Z,20.85
2023-03-04T00:36:15.883Z,20.98
2023-03-04T00:36:47.595Z,18.52
2023-03-04T00:37:19.190Z,20.63
2023-03-04T00:37:51.045Z,18.67
2023-03-04T00:38:22.750Z,20.73
2023-03-04T00:38:54.397Z,20.00
2023-03-04T00:39:25.981Z,20.15
2023-03-04T00:39:57.593Z,20.70
2023-03-04T00:40:29.200Z,19.52
2023-03-04T00:41:00.883Z,19.48
2023-03-04T00:41:32.520Z,19.13
2023-03-04T00:42:04.194Z,19.98
2023-03-04T00:42:35.849Z,20.20
2023-03-04T00:43:07.532Z,20.88
2023-03-04T00:43:39.312Z,21.15
2023-03-04T00:44:10.931Z,20.67
2023-03-04T00:44:42.660Z,18.77
2023-03-04T00:45:14.338Z,19.27
2023-03-04T00:45:46.015Z,20.02
2023-03-04T00:46:17.711Z,19.70
2023-03-04T00:46:49.347Z,21.42
2023-03-04T00:47:20.939Z,19.23
2023-03-04T00:47:52.551Z,20.88
2023-03-04T00:48:24.284Z,21.15
2023-03-04T00:48:55.860Z,20.35
2023-03-04T00:49:27.563Z,21.65
2023-03-04T00:49:59.166Z,21.27
2023-03-04T00:50:30.904Z,21.60
2023-03-04T00:51:02.508Z,19.95
2023-03-04T00:51:34.393Z,20.48
2023-03-04T00:52:06.158Z,20.10
2023-03-04T00:52:37.841Z,20.55
2023-03-04T00:53:10.099Z,19.67
2023-03-04T00:53:41.678Z,18.10
2023-03-04T00:54:13.365Z,20.08
2023-03-04T00:54:44.966Z,20.52
2023-03-04T00:55:16.602Z,19.98
2023-03-04T00:55:48.221Z,18.60
2023-03-04T00:56:19.857Z,20.88
2023-03-04T00:56:51.490Z,21.42
2023-03-04T00:57:23.164Z,20.88
2023-03-04T00:57:54.860Z,19.83
2023-03-04T00:58:26.554Z,19.38
2023-03-04T00:58:58.225Z,19.55
2023-03-04T00:59:29.857Z,20.10
2023-03-04T01:00:01.411Z,22.15
2023-03-04T01:00:33.093Z,18.85
2023-03-04T01:01:04.968Z,18.83
2023-03-04T01:01:36.663Z,18.98
2023-03-04T01:02:08.344Z,19.25
2023-03-04T01:02:39.962Z,18.10
2023-03-04T01:03:11.647Z,21.42
2023-03-04T01:03:43.306Z,20.85
2023-03-04T01:04:14.908Z,19.83
2023-03-04T01:04:46.528Z,20.45
2023-03-04T01:05:18.211Z,18.00
2023-03-04T01:05:49.758Z,17.55
2023-03-04T01:06:21.529Z,17.52
2023-03-04T01:06:53.184Z,18.48
2023-03-04T01:07:24.734Z,18.55
2023-03-04T01:07:56.326Z,17.13
2023-03-04T01:08:27.998Z,16.88
2023-03-04T01:08:59.592Z,17.65
2023-03-04T01:09:31.554Z,18.58
2023-03-04T01:10:03.237Z,17.75
2023-03-04T01:10:34.813Z,18.85
2023-03-04T01:11:07.081Z,18.85
2023-03-04T01:11:38.757Z,17.50
2023-03-04T01:12:10.340Z,17.75
2023-03-04T01:12:42.526Z,18.80
2023-03-04T01:13:14.365Z,18.25
2023-03-04T01:13:46.327Z,17.95
2023-03-04T01:14:18.049Z,17.95
2023-03-04T01:14:49.745Z,18.23
2023-03-04T01:15:21.393Z,19.48
2023-03-04T01:15:53.123Z,19.02
2023-03-04T01:16:24.842Z,19.98
2023-03-04T01:16:56.537Z,19.63
2023-03-04T01:17:28.140Z,19.05
2023-03-04T01:17:59.729Z,18.20
2023-03-04T01:18:31.447Z,18.42
2023-03-04T01:19:03.067Z,18.10
2023-03-04T01:19:34.621Z,18.10
2023-03-04T01:20:10.393Z,19.63
2023-03-04T01:20:42.057Z,18.45
2023-03-04T01:21:14.124Z,19.95
2023-03-04T01:21:45.763Z,18.77
2023-03-04T01:22:19.189Z,18.73
2023-03-04T01:22:50.764Z,18.90
2023-03-04T01:23:22.501Z,17.13
2023-03-04T01:23:54.115Z,17.83
2023-03-04T01:24:25.775Z,17.95
2023-03-04T01:24:57.470Z,18.48
2023-03-04T01:25:29.050Z,20.10
2023-03-04T01:26:00.752Z,19.80
2023-03-04T01:26:32.396Z,19.80
2023-03-04T01:27:04.152Z,18.30
2023-03-04T01:27:35.792Z,17.88
2023-03-04T01:28:07.394Z,18.67
2023-03-04T01:28:39.025Z,16.95
2023-03-04T01:29:10.856Z,17.02
2023-03-04T01:29:42.515Z,16.92
2023-03-04T01:30:14.268Z,17.48
2023-03-04T01:30:46.010Z,17.85
2023-03-04T01:31:17.742Z,18.33
2023-03-04T01:31:49.422Z,17.50
2023-03-04T01:32:21.241Z,17.25
2023-03-04T01:32:52.944Z,18.38
2023-03-04T01:33:24.566Z,17.95
2023-03-04T01:33:56.193Z,18.73
2023-03-04T01:34:27.805Z,18.17
2023-03-04T01:34:59.453Z,18.02
2023-03-04T01:35:31.236Z,17.60
2023-03-04T01:36:02.872Z,18.80
2023-03-04T01:36:34.488Z,17.73
2023-03-04T01:37:06.130Z,18.23
2023-03-04T01:37:37.790Z,18.40
2023-03-04T01:38:09.449Z,18.17
2023-03-04T01:38:41.091Z,16.73
2023-03-04T01:39:12.711Z,19.05
2023-03-04T01:39:44.390Z,17.52
2023-03-04T01:40:16.051Z,17.83
2023-03-04T01:40:49.314Z,19.25
2023-03-04T01:41:25.455Z,18.10
2023-03-04T01:41:57.021Z,18.67
2023-03-04T01:42:31.015Z,18.80
2023-03-04T01:43:02.849Z,17.33
2023-03-04T01:43:36.106Z,18.27
2023-03-04T01:44:09.892Z,17.63
2023-03-04T01:44:41.617Z,19.15
2023-03-04T01:45:17.776Z,18.58
2023-03-04T01:45:50.611Z,17.90
2023-03-04T01:46:22.440Z,18.85
2023-03-04T01:46:55.255Z,19.25
2023-03-04T01:47:29.373Z,19.50
2023-03-04T01:48:01.034Z,18.45
2023-03-04T01:48:37.378Z,18.77
2023-03-04T01:49:10.392Z,18.23
2023-03-04T01:49:42.158Z,16.88
2023-03-04T01:50:18.157Z,18.20
2023-03-04T01:50:49.713Z,17.40
2023-03-04T01:51:21.865Z,18.17
2023-03-04T01:51:54.651Z,17.48
2023-03-04T01:52:27.640Z,17.98
2023-03-04T01:52:59.619Z,18.10
2023-03-04T01:53:32.291Z,19.08
2023-03-04T01:54:03.942Z,18.85
2023-03-04T01:54:35.583Z,18.08
2023-03-04T01:55:15.934Z,19.40
2023-03-04T01:55:48.295Z,19.70
2023-03-04T01:56:24.005Z,17.20
2023-03-04T01:56:55.598Z,17.95
2023-03-04T01:57:27.322Z,19.05
2023-03-04T01:57:58.947Z,18.58
2023-03-04T01:58:32.154Z,19.33
2023-03-04T01:59:09.595Z,19.17
2023-03-04T01:59:41.499Z,17.05
2023-03-04T02:00:15.866Z,18.05
2023-03-04T02:00:47.540Z,18.48
2023-03-04T02:01:19.185Z,16.75
2023-03-04T02:01:53.917Z,16.70
2023-03-04T02:02:25.594Z,19.50
2023-03-04T02:03:09.141Z,18.88
2023-03-04T02:03:40.850Z,17.15
2023-03-04T02:04:12.938Z,17.90
2023-03-04T02:04:44.758Z,17.00
2023-03-04T02:05:16.456Z,17.38
2023-03-04T02:05:50.460Z,16.65
2023-03-04T02:06:22.066Z,16.35
2023-03-04T02:06:54.095Z,16.48
2023-03-04T02:07:25.800Z,16.35
2023-03-04T02:07:58.233Z,17.67
2023-03-04T02:08:29.955Z,17.90
2023-03-04T02:09:01.584Z,17.42
2023-03-04T02:09:34.231Z,17.05
2023-03-04T02:10:06.272Z,17.88
2023-03-04T02:10:38.728Z,17.67
2023-03-04T02:11:10.327Z,16.90
2023-03-04T02:11:42.768Z,16.35
2023-03-04T02:12:14.395Z,18.05
2023-03-04T02:12:46.145Z,16.30
2023-03-04T02:13:18.257Z,16.13
2023-03-04T02:13:49.962Z,15.60
2023-03-04T02:14:22.383Z,16.30
2023-03-04T02:14:54.920Z,18.05
2023-03-04T02:15:26.510Z,15.95
2023-03-04T02:15:58.200Z,15.70
2023-03-04T02:16:29.818Z,16.25
2023-03-04T02:17:01.466Z,16.20
2023-03-04T02:17:33.594Z,15.52
2023-03-04T02:18:20.901Z,16.92
2023-03-04T02:18:52.574Z,14.98
2023-03-04T02:19:26.767Z,14.43
2023-03-04T02:20:33.044Z,15.07
2023-03-04T02:21:13.049Z,13.18
2023-03-04T02:21:44.603Z,13.32
2023-03-04T02:22:16.254Z,14.35
2023-03-04T02:22:57.664Z,15.77
2023-03-04T02:23:47.372Z,15.27
2023-03-04T02:24:49.303Z,15.88
2023-03-04T02:25:25.929Z,16.55
2023-03-04T02:26:13.761Z,17.38
2023-03-04T02:26:46.999Z,17.20
2023-03-04T02:27:21.007Z,16.60
2023-03-04T02:27:53.549Z,16.02
2023-03-04T02:28:25.159Z,14.90
2023-03-04T02:28:58.397Z,19.40
2023-03-04T02:29:30.006Z,19.98
2023-03-04T02:30:01.680Z,18.08
2023-03-04T02:30:33.294Z,17.13
2023-03-04T02:31:05.084Z,16.48
2023-03-04T02:31:39.544Z,18.67
2023-03-04T02:32:12.834Z,17.65
2023-03-04T02:32:44.523Z,17.70
2023-03-04T02:33:18.040Z,17.30
2023-03-04T02:33:50.650Z,16.92
2023-03-04T02:34:29.382Z,17.30
2023-03-04T02:35:01.025Z,15.07
2023-03-04T02:35:32.849Z,17.52
2023-03-04T02:36:04.646Z,18.40
2023-03-04T02:36:36.555Z,15.10
2023-03-04T02:37:10.911Z,15.20
2023-03-04T02:37:42.565Z,14.38
2023-03-04T02:38:14.227Z,13.50
2023-03-04T02:38:45.913Z,14.70
2023-03-04T02:39:20.161Z,14.35
2023-03-04T02:39:51.884Z,14.63
2023-03-04T02:40:26.620Z,15.20
2023-03-04T02:40:58.500Z,14.60
2023-03-04T02:41:30.587Z,14.52
2023-03-04T02:42:03.808Z,14.88
2023-03-04T02:42:35.456Z,16.00
2023-03-04T02:43:07.184Z,15.77
2023-03-04T02:43:38.853Z,15.88
2023-03-04T02:44:22.399Z,15.25
2023-03-04T02:45:01.244Z,16.38
2023-03-04T02:45:37.195Z,15.48
2023-03-04T02:46:12.095Z,16.23
2023-03-04T02:46:43.919Z,15.57
2023-03-04T02:47:20.538Z,15.20
2023-03-04T02:47:52.198Z,15.18
2023-03-04T02:48:26.758Z,16.17
2023-03-04T02:48:58.335Z,15.00
2023-03-04T02:49:31.182Z,16.00
2023-03-04T02:50:02.817Z,15.90
2023-03-04T02:50:39.172Z,15.15
2023-03-04T02:51:11.125Z,15.73
2023-03-04T02:51:42.751Z,16.20
2023-03-04T02:52:18.302Z,15.68
2023-03-04T02:52:49.897Z,15.68
2023-03-04T02:53:22.441Z,15.90
2023-03-04T02:53:53.994Z,15.15
2023-03-04T02:54:25.592Z,15.93
2023-03-04T02:54:57.269Z,16.70
2023-03-04T02:55:29.692Z,15.98
2023-03-04T02:56:01.322Z,15.73
2023-03-04T02:56:33.042Z,15.43
2023-03-04T02:57:08.003Z,15.88
2023-03-04T02:57:39.597Z,15.07
2023-03-04T02:58:11.957Z,15.70
2023-03-04T02:58:43.550Z,16.65
2023-03-04T02:59:15.277Z,15.73
2023-03-04T02:59:46.950Z,15.95
2023-03-04T03:00:18.727Z,16.15
2023-03-04T03:00:50.369Z,16.30
2023-03-04T03:01:22.108Z,14.48
2023-03-04T03:01:53.920Z,16.27
2023-03-04T03:02:27.132Z,15.40
2023-03-04T03:02:58.993Z,15.55
2023-03-04T03:03:30.668Z,15.18
2023-03-04T03:04:02.336Z,15.43
2023-03-04T03:04:35.120Z,16.10
2023-03-04T03:05:06.965Z,15.70
2023-03-04T03:05:39.398Z,14.80
2023-03-04T03:06:11.085Z,17.45
2023-03-04T03:06:42.703Z,16.10
2023-03-04T03:07:14.384Z,16.35
2023-03-04T03:07:46.112Z,15.45
2023-03-04T03:08:17.702Z,15.98
2023-03-04T03:08:49.316Z,16.38
2023-03-04T03:09:21.459Z,15.80
2023-03-04T03:09:53.022Z,15.57
2023-03-04T03:10:24.797Z,15.63
2023-03-04T03:10:56.489Z,15.23
2023-03-04T03:11:28.090Z,16.95
2023-03-04T03:11:59.787Z,14.68
2023-03-04T03:12:31.421Z,15.10
2023-03-04T03:13:03.321Z,15.75
2023-03-04T03:13:34.969Z,15.88
2023-03-04T03:14:06.633Z,16.83
2023-03-04T03:14:38.265Z,16.88
2023-03-04T03:15:10.286Z,16.90
2023-03-04T03:15:42.540Z,17.65
2023-03-04T03:16:14.198Z,17.35
2023-03-04T03:16:45.885Z,17.48
2023-03-04T03:17:17.529Z,16.70
2023-03-04T03:17:49.250Z,16.13
2023-03-04T03:18:20.917Z,16.45
2023-03-04T03:18:52.593Z,17.20
2023-03-04T03:19:24.175Z,16.38
2023-03-04T03:19:56.671Z,17.10
2023-03-04T03:20:28.212Z,17.75
2023-03-04T03:20:59.795Z,16.50
2023-03-04T03:21:31.459Z,17.83
2023-03-04T03:22:03.175Z,17.48
2023-03-04T03:22:34.762Z,15.50
2023-03-04T03:23:06.325Z,18.00
2023-03-04T03:23:37.901Z,16.13
2023-03-04T03:24:09.493Z,17.55
2023-03-04T03:24:41.146Z,17.30
2023-03-04T03:25:14.244Z,16.02
2023-03-04T03:25:45.793Z,15.93
2023-03-04T03:26:18.366Z,17.38
2023-03-04T03:26:49.992Z,16.80
2023-03-04T03:27:21.622Z,17.13
2023-03-04T03:27:53.244Z,16.40
2023-03-04T03:28:24.836Z,17.27
2023-03-04T03:28:56.442Z,16.85
2023-03-04T03:29:28.007Z,18.50
2023-03-04T03:29:59.634Z,18.20
2023-03-04T03:30:31.358Z,16.58
2023-03-04T03:31:03.027Z,17.75
2023-03-04T03:31:34.790Z,18.02
2023-03-04T03:32:06.576Z,16.45
2023-03-04T03:32:38.282Z,17.52
2023-03-04T03:33:09.956Z,17.60
2023-03-04T03:33:41.581Z,18.20
2023-03-04T03:34:13.241Z,16.48
2023-03-04T03:34:44.870Z,18.98
2023-03-04T03:35:16.495Z,16.88
2023-03-04T03:35:48.297Z,17.95
2023-03-04T03:36:20.107Z,17.77
2023-03-04T03:36:51.744Z,16.83
2023-03-04T03:37:23.642Z,18.08
2023-03-04T03:37:55.268Z,18.45
2023-03-04T03:38:27.650Z,16.92
2023-03-04T03:38:59.262Z,18.88
2023-03-04T03:39:30.851Z,19.08
2023-03-04T03:40:02.817Z,19.10
2023-03-04T03:40:34.509Z,19.02
2023-03-04T03:41:06.108Z,19.98
2023-03-04T03:41:37.674Z,19.42
2023-03-04T03:42:09.301Z,19.73
2023-03-04T03:42:41.027Z,19.50
2023-03-04T03:43:12.603Z,20.80
2023-03-04T03:43:44.152Z,20.80
2023-03-04T03:44:16.103Z,20.85
2023-03-04T03:44:47.844Z,20.85
2023-03-04T03:45:19.422Z,19.92
2023-03-04T03:45:52.164Z,19.40
2023-03-04T03:46:23.891Z,20.45
2023-03-04T03:46:55.528Z,20.05
2023-03-04T03:47:27.431Z,21.55
2023-03-04T03:47:59.015Z,19.83
2023-03-04T03:48:30.609Z,19.25
2023-03-04T03:49:02.170Z,20.08
2023-03-04T03:49:33.758Z,18.80
2023-03-04T03:50:05.956Z,18.00
2023-03-04T03:50:37.657Z,18.67
2023-03-04T03:51:09.595Z,18.50
2023-03-04T03:51:41.282Z,18.30
2023-03-04T03:52:13.053Z,17.98
2023-03-04T03:52:44.631Z,19.20
2023-03-04T03:53:16.226Z,16.80
2023-03-04T03:53:47.841Z,17.33
2023-03-04T03:54:19.575Z,18.38
2023-03-04T03:54:51.251Z,16.95
2023-03-04T03:55:23.274Z,18.15
2023-03-04T03:55:54.924Z,21.48
2023-03-04T03:56:26.508Z,20.17
2023-03-04T03:56:58.192Z,20.92
2023-03-04T03:57:30.166Z,19.60
2023-03-04T03:58:01.736Z,19.60
2023-03-04T03:58:33.369Z,21.10
2023-03-04T03:59:05.002Z,20.77
2023-03-04T03:59:36.623Z,19.80
2023-03-04T04:00:10.355Z,21.48
2023-03-04T04:00:41.924Z,21.80
2023-03-04T04:01:13.480Z,20.42
2023-03-04T04:01:45.203Z,19.95
2023-03-04T04:02:16.918Z,20.90
2023-03-04T04:02:48.662Z,21.45
2023-03-04T04:03:20.761Z,21.17
2023-03-04T04:03:53.177Z,21.00
2023-03-04T04:04:24.841Z,22.10
2023-03-04T04:04:56.529Z,21.65
2023-03-04T04:05:28.174Z,22.38
2023-03-04T04:05:59.842Z,20.15
2023-03-04T04:06:31.467Z,22.40
2023-03-04T04:07:03.220Z,21.38
2023-03-04T04:07:34.938Z,22.77
2023-03-04T04:08:06.621Z,23.42
2023-03-04T04:08:38.437Z,24.77
2023-03-04T04:09:10.029Z,27.48
2023-03-04T04:09:41.681Z,24.50
2023-03-04T04:10:13.248Z,24.90
2023-03-04T04:10:45.043Z,28.08
2023-03-04T04:11:16.714Z,23.65
2023-03-04T04:11:48.440Z,29.15
2023-03-04T04:12:20.457Z,28.50
2023-03-04T04:12:52.078Z,28.58
2023-03-04T04:13:23.793Z,28.00
2023-03-04T04:13:55.433Z,30.83
2023-03-04T04:14:27.012Z,30.25
2023-03-04T04:14:58.681Z,30.67
2023-03-04T04:15:30.270Z,33.03
2023-03-04T04:16:01.908Z,33.65
2023-03-04T04:16:33.702Z,30.17
2023-03-04T04:17:05.433Z,29.88
2023-03-04T04:17:37.058Z,32.15
2023-03-04T04:18:09.037Z,29.27
2023-03-04T04:18:40.654Z,32.55
2023-03-04T04:19:17.995Z,30.25
2023-03-04T04:19:49.606Z,35.00
2023-03-04T04:20:21.260Z,32.80
2023-03-04T04:20:53.754Z,31.95
2023-03-04T04:21:25.355Z,30.80
2023-03-04T04:21:56.913Z,29.75
2023-03-04T04:22:28.486Z,28.40
2023-03-04T04:23:00.070Z,26.48
2023-03-04T04:23:31.893Z,26.23
2023-03-04T04:24:03.569Z,26.83
2023-03-04T04:24:36.048Z,23.23
2023-03-04T04:25:10.655Z,19.23
2023-03-04T04:25:42.302Z,18.70
2023-03-04T04:26:13.916Z,22.00
2023-03-04T04:26:45.524Z,22.20
2023-03-04T04:27:17.136Z,22.17
2023-03-04T04:27:48.705Z,19.08
2023-03-04T04:28:20.359Z,17.08
2023-03-04T04:28:52.017Z,17.65
2023-03-04T04:29:23.642Z,16.85
2023-03-04T04:29:55.324Z,16.40
2023-03-04T04:30:26.965Z,16.67
2023-03-04T04:30:58.627Z,17.52
2023-03-04T04:31:30.243Z,17.55
2023-03-04T04:32:01.939Z,18.60
2023-03-04T04:32:33.642Z,17.75
2023-03-04T04:33:05.293Z,15.20
2023-03-04T04:33:36.897Z,16.40
2023-03-04T04:34:09.033Z,16.60
2023-03-04T04:34:40.717Z,16.80
2023-03-04T04:35:12.477Z,14.88
2023-03-04T04:35:44.155Z,15.38
2023-03-04T04:36:20.856Z,14.70
2023-03-04T04:36:53.066Z,14.70
2023-03-04T04:37:24.634Z,14.10
2023-03-04T04:37:56.715Z,15.85
2023-03-04T04:38:28.441Z,15.00
2023-03-04T04:39:00.190Z,15.35
2023-03-04T04:39:31.895Z,15.95
2023-03-04T04:40:04.381Z,16.95
2023-03-04T04:40:36.529Z,17.45
2023-03-04T04:41:19.256Z,16.33
2023-03-04T04:41:50.884Z,14.40
2023-03-04T04:42:22.773Z,15.73
2023-03-04T04:42:54.367Z,16.02
2023-03-04T04:43:26.125Z,15.73
2023-03-04T04:43:57.743Z,16.05
2023-03-04T04:44:29.371Z,15.15
2023-03-04T04:45:01.136Z,17.13
2023-03-04T04:45:32.792Z,16.30
2023-03-04T04:46:04.556Z,14.63
2023-03-04T04:46:36.896Z,17.83
2023-03-04T04:47:09.947Z,17.40
2023-03-04T04:47:41.656Z,17.50
2023-03-04T04:48:13.296Z,17.27
2023-03-04T04:48:45.036Z,16.52
2023-03-04T04:49:16.634Z,17.17
2023-03-04T04:49:48.242Z,17.42
2023-03-04T04:50:20.026Z,18.27
2023-03-04T04:50:56.340Z,18.77
2023-03-04T04:51:28.375Z,16.92
2023-03-04T04:52:00.055Z,19.15
2023-03-04T04:52:31.660Z,20.98
2023-03-04T04:53:03.421Z,18.85
2023-03-04T04:53:35.226Z,19.25
2023-03-04T04:54:07.624Z,20.50
2023-03-04T04:54:39.227Z,19.27
2023-03-04T04:55:11.121Z,18.10
2023-03-04T04:55:42.798Z,19.08
2023-03-04T04:56:16.813Z,20.60
2023-03-04T04:56:48.585Z,20.65
2023-03-04T04:57:20.214Z,21.65
2023-03-04T04:57:51.880Z,21.13
2023-03-04T04:58:23.780Z,21.70
2023-03-04T04:58:57.784Z,21.02
2023-03-04T04:59:29.383Z,21.52
2023-03-04T05:00:01.049Z,21.63
2023-03-04T05:00:32.608Z,20.30
2023-03-04T05:01:05.039Z,18.88
2023-03-04T05:01:36.729Z,18.00
2023-03-04T05:02:08.378Z,16.35
2023-03-04T05:02:39.939Z,16.60
2023-03-04T05:03:11.567Z,18.85
2023-03-04T05:03:43.412Z,19.55
2023-03-04T05:04:15.089Z,20.42
2023-03-04T05:04:46.705Z,19.08
2023-03-04T05:05:18.313Z,18.55
2023-03-04T05:05:49.907Z,19.08
2023-03-04T05:06:23.856Z,18.77
2023-03-04T05:06:55.456Z,19.20
2023-03-04T05:07:27.008Z,19.55
2023-03-04T05:07:58.853Z,19.17
2023-03-04T05:08:30.506Z,19.05
2023-03-04T05:09:02.382Z,21.00
2023-03-04T05:09:34.088Z,20.08
2023-03-04T05:10:05.996Z,19.60
2023-03-04T05:10:38.192Z,20.90
2023-03-04T05:11:09.811Z,20.33
2023-03-04T05:11:41.457Z,20.05
2023-03-04T05:12:13.215Z,20.67
2023-03-04T05:12:45.295Z,21.40
2023-03-04T05:13:17.014Z,20.63
2023-03-04T05:13:49.497Z,20.60
2023-03-04T05:14:21.053Z,20.15
2023-03-04T05:14:52.673Z,21.30
2023-03-04T05:15:25.097Z,19.88
2023-03-04T05:15:56.989Z,20.38
2023-03-04T05:16:28.632Z,20.15
2023-03-04T05:17:00.321Z,20.88
2023-03-04T05:17:31.895Z,22.33
2023-03-04T05:18:03.545Z,22.02
2023-03-04T05:18:35.192Z,20.00
2023-03-04T05:19:07.037Z,21.50
2023-03-04T05:19:38.657Z,19.15
2023-03-04T05:20:11.079Z,20.50
2023-03-04T05:20:42.702Z,19.95
2023-03-04T05:21:14.597Z,20.65
2023-03-04T05:21:46.236Z,20.60
2023-03-04T05:22:17.876Z,21.00
2023-03-04T05:22:49.559Z,19.85
2023-03-04T05:23:21.253Z,20.05
2023-03-04T05:23:52.872Z,22.25
2023-03-04T05:24:24.549Z,20.13
2023-03-04T05:24:57.301Z,19.52
2023-03-04T05:25:29.110Z,20.50
2023-03-04T05:26:01.333Z,19.05
2023-03-04T05:26:33.297Z,20.70
2023-03-04T05:27:04.899Z,19.77
2023-03-04T05:27:36.516Z,19.58
2023-03-04T05:28:12.562Z,20.83
2023-03-04T05:28:44.949Z,20.42
2023-03-04T05:29:16.600Z,18.80
2023-03-04T05:29:48.137Z,19.60
2023-03-04T05:30:19.831Z,21.15
2023-03-04T05:30:51.516Z,20.40
2023-03-04T05:31:23.275Z,19.13
2023-03-04T05:31:54.927Z,21.48
2023-03-04T05:32:26.960Z,19.13
2023-03-04T05:32:58.612Z,19.92
2023-03-04T05:33:30.599Z,19.95
2023-03-04T05:34:02.283Z,19.25
2023-03-04T05:34:33.892Z,20.50
2023-03-04T05:35:06.520Z,21.05
2023-03-04T05:35:39.112Z,21.10
2023-03-04T05:36:10.834Z,19.85
2023-03-04T05:36:42.444Z,20.80
2023-03-04T05:37:14.076Z,18.27
2023-03-04T05:37:45.684Z,20.45
2023-03-04T05:38:19.589Z,20.17
2023-03-04T05:38:51.405Z,21.48
2023-03-04T05:39:22.998Z,21.38
2023-03-04T05:39:54.624Z,20.95
2023-03-04T05:40:26.261Z,21.45
2023-03-04T05:40:59.542Z,22.42
2023-03-04T05:41:31.206Z,21.92
2023-03-04T05:42:02.758Z,21.92
2023-03-04T05:42:34.373Z,20.98
2023-03-04T05:43:06.168Z,21.05
2023-03-04T05:43:42.915Z,20.75
2023-03-04T05:44:14.727Z,21.08
2023-03-04T05:44:46.366Z,22.20
2023-03-04T05:45:18.112Z,21.67
2023-03-04T05:45:50.031Z,22.02
2023-03-04T05:46:25.694Z,21.55
2023-03-04T05:46:57.473Z,21.50
2023-03-04T05:47:29.009Z,19.70
2023-03-04T05:48:00.712Z,20.77
2023-03-04T05:48:32.376Z,21.80
2023-03-04T05:49:04.139Z,22.05
2023-03-04T05:49:35.785Z,20.73
2023-03-04T05:50:07.827Z,22.00
2023-03-04T05:50:39.461Z,23.60
2023-03-04T05:51:11.382Z,23.33
2023-03-04T05:51:43.031Z,21.00
2023-03-04T05:52:14.657Z,22.65
2023-03-04T05:52:46.431Z,22.15
2023-03-04T05:53:17.967Z,22.25
2023-03-04T05:53:49.951Z,23.75
2023-03-04T05:54:21.857Z,23.50
2023-03-04T05:54:53.511Z,22.60
2023-03-04T05:55:25.316Z,22.50
2023-03-04T05:55:56.998Z,23.25
2023-03-04T05:56:30.155Z,22.85
2023-03-04T05:57:02.551Z,22.42
2023-03-04T05:57:34.164Z,21.83
2023-03-04T05:58:05.699Z,22.65
2023-03-04T05:58:37.473Z,22.60
2023-03-04T05:59:09.069Z,22.83
2023-03-04T05:59:40.620Z,22.85
2023-03-04T06:00:13.457Z,23.15
2023-03-04T06:00:45.688Z,22.70
2023-03-04T06:01:17.714Z,21.95
2023-03-04T06:01:49.484Z,25.75
2023-03-04T06:02:21.059Z,23.98
2023-03-04T06:02:52.784Z,22.23
2023-03-04T06:03:25.388Z,24.50
2023-03-04T06:03:57.220Z,24.45
2023-03-04T06:04:28.836Z,23.23
2023-03-04T06:05:00.632Z,23.63
2023-03-04T06:05:32.271Z,24.73
2023-03-04T06:06:04.260Z,21.77
2023-03-04T06:06:35.929Z,23.30
2023-03-04T06:07:07.596Z,24.10
2023-03-04T06:07:39.216Z,21.83
2023-03-04T06:08:12.004Z,21.00
2023-03-04T06:08:43.724Z,22.50
2023-03-04T06:09:15.334Z,22.83
2023-03-04T06:09:46.877Z,23.55
2023-03-04T06:10:18.784Z,24.70
2023-03-04T06:10:53.435Z,24.20
2023-03-04T06:11:25.068Z,22.00
2023-03-04T06:11:56.638Z,23.52
2023-03-04T06:12:28.936Z,26.80
2023-03-04T06:13:00.506Z,25.52
2023-03-04T06:13:32.504Z,24.58
2023-03-04T06:14:04.109Z,23.58
2023-03-04T06:14:35.734Z,23.40
2023-03-04T06:15:10.169Z,23.85
2023-03-04T06:15:41.871Z,24.05
2023-03-04T06:16:13.535Z,24.13
2023-03-04T06:16:45.180Z,24.45
2023-03-04T06:17:16.948Z,25.13
2023-03-04T06:17:48.536Z,24.10
2023-03-04T06:18:20.210Z,23.63
2023-03-04T06:18:51.830Z,26.17
2023-03-04T06:19:23.530Z,26.67
2023-03-04T06:19:55.143Z,25.60
2023-03-04T06:20:26.803Z,25.38
2023-03-04T06:20:59.929Z,25.58
2023-03-04T06:21:31.602Z,24.73
2023-03-04T06:22:03.251Z,25.05
2023-03-04T06:22:35.680Z,26.58
2023-03-04T06:23:07.363Z,24.92
2023-03-04T06:23:38.991Z,24.42
2023-03-04T06:24:10.583Z,25.55
2023-03-04T06:24:42.167Z,25.85
2023-03-04T06:25:13.725Z,25.98
2023-03-04T06:25:45.337Z,25.23
2023-03-04T06:26:16.992Z,24.20
2023-03-04T06:26:48.639Z,25.20
2023-03-04T06:27:20.271Z,24.92
2023-03-04T06:27:53.009Z,25.33
2023-03-04T06:28:25.848Z,24.63
2023-03-04T06:28:57.584Z,23.60
2023-03-04T06:29:29.215Z,24.20
2023-03-04T06:30:01.834Z,25.83
2023-03-04T06:30:34.075Z,23.92
2023-03-04T06:31:05.799Z,24.00
2023-03-04T06:31:38.346Z,25.90
2023-03-04T06:32:10.025Z,24.45
2023-03-04T06:32:44.405Z,24.63
2023-03-04T06:33:16.041Z,22.25
2023-03-04T06:33:47.670Z,25.38
2023-03-04T06:34:19.411Z,26.45
2023-03-04T06:34:51.118Z,25.48
2023-03-04T06:35:22.878Z,27.08
2023-03-04T06:35:55.906Z,27.77
2023-03-04T06:36:27.502Z,26.35
2023-03-04T06:36:59.259Z,24.98
2023-03-04T06:37:30.871Z,25.08
2023-03-04T06:38:02.426Z,25.35
2023-03-04T06:38:34.083Z,24.10
2023-03-04T06:39:06.394Z,26.30
2023-03-04T06:39:38.011Z,25.83
2023-03-04T06:40:11.006Z,24.52
2023-03-04T06:40:42.683Z,24.75
2023-03-04T06:41:14.548Z,25.30
2023-03-04T06:41:46.270Z,23.58
2023-03-04T06:42:17.952Z,24.25
2023-03-04T06:42:49.492Z,24.20
2023-03-04T06:43:21.278Z,24.45
2023-03-04T06:43:55.862Z,23.13
2023-03-04T06:44:27.521Z,24.85
2023-03-04T06:44:59.123Z,24.88
2023-03-04T06:45:30.794Z,23.33
2023-03-04T06:46:02.377Z,23.60
2023-03-04T06:46:35.192Z,23.77
2023-03-04T06:47:07.497Z,22.52
2023-03-04T06:47:39.141Z,28.38
2023-03-04T06:48:10.839Z,23.20
2023-03-04T06:48:42.457Z,21.65
2023-03-04T06:49:14.094Z,22.70
2023-03-04T06:49:45.798Z,23.55
2023-03-04T06:50:17.475Z,24.48
2023-03-04T06:50:49.123Z,27.15
2023-03-04T06:51:20.843Z,26.38
2023-03-04T06:51:53.156Z,26.48
2023-03-04T06:52:24.820Z,25.90
2023-03-04T06:52:57.475Z,25.27
2023-03-04T06:53:29.123Z,25.90
2023-03-04T06:54:00.688Z,25.80
2023-03-04T06:54:32.285Z,22.90
2023-03-04T06:55:04.257Z,23.98